Time;durP1;ratioP1;P1;durP2;ratioP2;P2;SDS_P1;SDS_P2;PMS_P1;PMS_P2;Temp;Humidity;BMP_temperature;BMP_pressure;BME280_temperature;BME280_humidity;BME280_pressure;Samples;Min_cycle;Max_cycle;Signal;HPM_P1;HPM_P2
2021/01/18 00:01:30;;;;;;;22.58;11.20;;;2.30;99.90;;;;;;5013213;28;20743;-54
2021/01/18 00:03:56;;;;;;;20.48;11.70;;;3.40;99.90;;;;;;5012038;28;20408;-54
2021/01/18 00:06:22;;;;;;;23.33;11.73;;;4.00;99.90;;;;;;5011942;28;20882;-54
2021/01/18 00:08:49;;;;;;;24.30;11.47;;;2.70;99.90;;;;;;5012389;28;20839;-54
2021/01/18 00:11:17;;;;;;;21.83;10.40;;;3.20;99.90;;;;;;5011590;28;20459;-54
2021/01/18 00:13:44;;;;;;;24.60;10.13;;;3.90;99.90;;;;;;5011458;28;20393;-54
2021/01/18 00:16:14;;;;;;;18.95;9.57;;;2.50;99.90;;;;;;5012080;28;20475;-53
2021/01/18 00:18:40;;;;;;;18.83;9.77;;;2.50;99.90;;;;;;5011194;28;20480;-54
2021/01/18 00:21:06;;;;;;;23.83;11.80;;;2.50;99.90;;;;;;5010733;28;20411;-54
2021/01/18 00:23:32;;;;;;;18.50;10.05;;;3.30;99.90;;;;;;5013080;28;20487;-54
2021/01/18 00:25:57;;;;;;;20.40;10.00;;;4.10;99.90;;;;;;5010842;28;20484;-54
2021/01/18 00:28:23;;;;;;;18.13;10.27;;;2.40;99.90;;;;;;5012806;28;20389;-54
2021/01/18 00:30:49;;;;;;;23.33;10.27;;;2.40;99.90;;;;;;5012206;28;20436;-54
2021/01/18 00:33:14;;;;;;;18.57;9.00;;;2.40;99.90;;;;;;5010814;28;20408;-55
2021/01/18 00:35:40;;;;;;;21.13;10.87;;;2.30;99.90;;;;;;5011387;28;20388;-54
2021/01/18 00:38:06;;;;;;;20.58;10.15;;;2.30;99.90;;;;;;5011703;28;20407;-54
2021/01/18 00:40:31;;;;;;;19.60;10.73;;;2.20;99.90;;;;;;5012117;28;20446;-54
2021/01/18 00:42:57;;;;;;;21.37;10.47;;;2.90;99.90;;;;;;5008860;28;20459;-54
2021/01/18 00:45:24;;;;;;;22.50;11.50;;;2.40;99.90;;;;;;5012882;28;20378;-54
2021/01/18 00:47:54;;;;;;;23.23;11.25;;;3.70;99.90;;;;;;5010075;28;20811;-54
2021/01/18 00:50:23;;;;;;;23.90;11.23;;;3.20;99.90;;;;;;5011945;28;20468;-54
2021/01/18 00:52:51;;;;;;;20.88;10.75;;;5.10;99.90;;;;;;5009083;28;20413;-54
2021/01/18 00:55:20;;;;;;;22.52;11.07;;;2.60;99.90;;;;;;5012169;28;20459;-54
2021/01/18 00:57:46;;;;;;;20.63;9.88;;;2.60;99.90;;;;;;5010366;28;20396;-54
2021/01/18 01:00:17;;;;;;;18.83;10.30;;;2.70;99.90;;;;;;5011262;28;20968;-54
2021/01/18 01:02:45;;;;;;;21.48;11.00;;;2.70;99.90;;;;;;5011136;28;20519;-54
2021/01/18 01:05:13;;;;;;;20.80;10.23;;;2.70;99.90;;;;;;5010665;28;20405;-54
2021/01/18 01:07:46;;;;;;;24.88;11.48;;;4.40;99.90;;;;;;5010015;28;20396;-54
2021/01/18 01:10:16;;;;;;;21.15;10.02;;;2.70;99.90;;;;;;5010423;28;20547;-54
2021/01/18 01:12:42;;;;;;;20.45;11.07;;;2.80;99.90;;;;;;5011643;28;20389;-54
2021/01/18 01:15:08;;;;;;;24.93;11.80;;;4.50;99.90;;;;;;5010260;28;20413;-54
2021/01/18 01:17:44;;;;;;;18.88;10.80;;;2.60;99.90;;;;;;5011344;28;20755;-54
2021/01/18 01:20:11;;;;;;;23.08;11.90;;;3.00;99.90;;;;;;5009934;28;20825;-54
2021/01/18 01:22:38;;;;;;;22.23;11.43;;;2.80;99.90;;;;;;5008968;28;20782;-54
2021/01/18 01:25:08;;;;;;;24.73;12.25;;;2.80;99.90;;;;;;5010879;28;20395;-54
2021/01/18 01:27:34;;;;;;;23.20;11.00;;;2.70;99.90;;;;;;5010507;28;20409;-54
2021/01/18 01:30:00;;;;;;;23.27;11.68;;;2.80;99.90;;;;;;5011171;28;20459;-54
2021/01/18 01:32:26;;;;;;;23.60;11.57;;;2.70;99.90;;;;;;5010809;28;20543;-54
2021/01/18 01:34:51;;;;;;;21.42;11.20;;;2.70;99.90;;;;;;5009601;28;20412;-54
2021/01/18 01:37:18;;;;;;;24.43;11.93;;;2.70;99.90;;;;;;5010672;28;20400;-54
2021/01/18 01:39:43;;;;;;;23.40;11.35;;;2.70;99.90;;;;;;5010406;28;20476;-54
2021/01/18 01:42:20;;;;;;;22.90;10.80;;;3.60;99.90;;;;;;5009645;28;20484;-54
2021/01/18 01:44:46;;;;;;;20.38;9.88;;;3.30;99.90;;;;;;5003217;28;20393;-54
2021/01/18 01:47:29;;;;;;;25.00;12.20;;;2.70;99.90;;;;;;5010517;28;20372;-54
2021/01/18 01:49:56;;;;;;;21.33;11.20;;;2.70;99.90;;;;;;5008524;28;20463;-54
2021/01/18 01:52:23;;;;;;;18.70;10.00;;;3.80;99.90;;;;;;5009816;28;20413;-54
2021/01/18 01:54:52;;;;;;;18.73;10.00;;;3.90;99.90;;;;;;5010019;28;20397;-54
2021/01/18 01:57:18;;;;;;;17.90;9.43;;;2.80;99.90;;;;;;5010133;28;20416;-54
2021/01/18 01:59:45;;;;;;;18.48;9.90;;;3.20;99.90;;;;;;5009818;28;20392;-54
2021/01/18 02:02:13;;;;;;;17.52;9.75;;;3.10;99.90;;;;;;5009818;28;20422;-54
2021/01/18 02:04:39;;;;;;;24.35;10.32;;;2.80;99.90;;;;;;5010482;28;20393;-54
2021/01/18 02:07:26;;;;;;;22.92;10.68;;;4.50;99.90;;;;;;5009954;28;20937;-54
2021/01/18 02:09:55;;;;;;;20.92;11.25;;;4.10;99.90;;;;;;5009924;28;20385;-54
2021/01/18 02:12:22;;;;;;;19.40;10.00;;;2.70;99.90;;;;;;5011301;28;20451;-54
2021/01/18 02:15:26;;;;;;;18.58;10.00;;;2.70;99.90;;;;;;5008635;28;20487;-54
2021/01/18 02:18:07;;;;;;;21.90;10.50;;;2.60;99.90;;;;;;5002342;28;20909;-54
2021/01/18 02:20:41;;;;;;;21.80;10.68;;;2.70;99.90;;;;;;5009324;28;20867;-54
2021/01/18 02:23:31;;;;;;;22.13;10.68;;;2.80;99.90;;;;;;5008961;28;20424;-54
2021/01/18 02:26:09;;;;;;;19.98;10.00;;;2.70;99.90;;;;;;5008703;28;20499;-54
2021/01/18 02:29:25;;;;;;;21.42;10.40;;;2.60;99.90;;;;;;5008133;28;20432;-55
2021/01/18 02:32:13;;;;;;;20.40;12.17;;;2.70;99.90;;;;;;4986073;28;20400;-55
2021/01/18 02:34:57;;;;;;;22.65;10.30;;;2.70;99.90;;;;;;5009118;28;20408;-54
2021/01/18 02:37:43;;;;;;;24.92;11.50;;;2.60;99.90;;;;;;5009645;28;20397;-54
2021/01/18 02:40:30;;;;;;;24.40;12.15;;;2.70;99.90;;;;;;5009796;28;20405;-54
2021/01/18 02:43:05;;;;;;;24.88;12.40;;;2.70;99.90;;;;;;5009058;28;20413;-54
2021/01/18 02:45:32;;;;;;;23.17;12.18;;;3.20;99.90;;;;;;5009716;28;20480;-54
2021/01/18 02:47:58;;;;;;;25.13;12.33;;;4.30;99.90;;;;;;5009687;28;20392;-54
2021/01/18 02:50:24;;;;;;;27.07;12.80;;;3.20;99.90;;;;;;5008680;28;20400;-54
2021/01/18 02:52:51;;;;;;;24.63;12.00;;;2.70;99.90;;;;;;5009377;28;20870;-54
2021/01/18 02:55:17;;;;;;;30.60;11.93;;;2.70;99.90;;;;;;5009860;28;20373;-54
2021/01/18 02:57:46;;;;;;;23.87;11.80;;;3.30;99.90;;;;;;5008446;28;20454;-54
2021/01/18 03:00:16;;;;;;;28.98;12.60;;;2.60;99.90;;;;;;5010161;28;20387;-54
2021/01/18 03:03:08;;;;;;;21.48;11.40;;;2.70;99.90;;;;;;5008437;28;20890;-54
2021/01/18 03:05:43;;;;;;;25.98;11.73;;;2.60;99.90;;;;;;4986866;28;20396;-54
2021/01/18 03:08:29;;;;;;;25.25;11.05;;;2.60;99.90;;;;;;5010395;28;20535;-54
2021/01/18 03:10:59;;;;;;;27.40;12.63;;;3.10;99.90;;;;;;5008019;28;20591;-54
2021/01/18 03:13:57;;;;;;;22.80;11.50;;;2.60;99.90;;;;;;5008751;28;20408;-54
2021/01/18 03:16:26;;;;;;;24.55;11.23;;;2.90;99.90;;;;;;5010142;28;20403;-54
2021/01/18 03:18:53;;;;;;;22.15;12.13;;;3.30;99.90;;;;;;5009481;28;20388;-54
2021/01/18 03:21:19;;;;;;;22.50;11.50;;;5.00;99.90;;;;;;5009865;28;20491;-54
2021/01/18 03:23:45;;;;;;;24.93;11.53;;;3.20;99.90;;;;;;5013051;28;20895;-54
2021/01/18 03:26:12;;;;;;;21.58;10.80;;;4.10;99.90;;;;;;5012449;28;20407;-54
2021/01/18 03:28:38;;;;;;;20.70;11.40;;;2.50;99.90;;;;;;5013682;28;20479;-54
2021/01/18 03:31:04;;;;;;;24.63;11.27;;;3.40;99.90;;;;;;5011958;28;20546;-54
2021/01/18 03:33:30;;;;;;;22.43;11.20;;;4.70;99.90;;;;;;5013619;28;20508;-54
2021/01/18 03:35:56;;;;;;;22.48;9.40;;;2.70;99.90;;;;;;5012360;28;20793;-54
2021/01/18 03:38:23;;;;;;;22.83;10.57;;;2.40;99.90;;;;;;5012606;28;20944;-54
2021/01/18 03:40:50;;;;;;;19.58;10.10;;;3.80;99.90;;;;;;5012716;28;20763;-54
2021/01/18 03:43:17;;;;;;;20.60;10.48;;;4.70;99.90;;;;;;5012182;28;20420;-54
2021/01/18 03:45:44;;;;;;;22.70;10.70;;;2.40;99.90;;;;;;5012768;28;20471;-54
2021/01/18 03:48:10;;;;;;;21.55;10.43;;;2.50;99.90;;;;;;5011886;28;20419;-54
2021/01/18 03:50:37;;;;;;;23.65;10.55;;;2.50;99.90;;;;;;5013220;28;20488;-54
2021/01/18 03:53:04;;;;;;;19.42;9.68;;;2.60;99.90;;;;;;5011271;28;21002;-54
2021/01/18 03:55:30;;;;;;;20.90;9.67;;;2.70;99.90;;;;;;5013286;28;20389;-54
2021/01/18 03:57:56;;;;;;;26.33;10.30;;;3.70;99.90;;;;;;5012935;28;20389;-54
2021/01/18 04:00:27;;;;;;;20.63;9.53;;;2.60;99.90;;;;;;5011862;28;20396;-54
2021/01/18 04:02:53;;;;;;;22.23;9.70;;;2.60;99.90;;;;;;5011007;28;20420;-54
2021/01/18 04:05:20;;;;;;;21.77;9.70;;;5.00;99.90;;;;;;5011090;28;20416;-54
2021/01/18 04:07:46;;;;;;;17.90;9.52;;;3.40;99.90;;;;;;5012432;28;20385;-54
2021/01/18 04:10:14;;;;;;;18.17;8.57;;;2.80;99.90;;;;;;5012318;28;20381;-54
2021/01/18 04:12:40;;;;;;;17.52;8.93;;;4.90;99.90;;;;;;5011669;28;20408;-54
2021/01/18 04:15:07;;;;;;;19.67;9.33;;;3.90;99.90;;;;;;5011403;28;20409;-54
2021/01/18 04:17:33;;;;;;;16.80;9.18;;;2.60;99.90;;;;;;5012803;28;20381;-55
2021/01/18 04:19:59;;;;;;;18.93;10.10;;;2.60;99.90;;;;;;5011943;28;20381;-54
2021/01/18 04:22:24;;;;;;;19.05;9.45;;;3.50;99.90;;;;;;5011416;28;20417;-54
2021/01/18 04:24:50;;;;;;;18.60;9.10;;;4.20;99.90;;;;;;5012055;28;20389;-54
2021/01/18 04:27:15;;;;;;;19.47;9.23;;;5.00;99.90;;;;;;5012475;28;21175;-54
2021/01/18 04:29:41;;;;;;;17.40;9.00;;;2.70;99.90;;;;;;5010692;28;20483;-54
2021/01/18 04:32:07;;;;;;;20.20;8.77;;;2.70;99.90;;;;;;5010551;28;20401;-54
2021/01/18 04:34:32;;;;;;;21.50;8.33;;;2.70;99.90;;;;;;5011860;28;20389;-54
2021/01/18 04:37:00;;;;;;;17.02;8.35;;;2.70;99.90;;;;;;5010406;28;20418;-54
2021/01/18 04:39:26;;;;;;;20.90;8.98;;;2.60;99.90;;;;;;5011523;28;20432;-54
2021/01/18 04:41:52;;;;;;;19.95;9.18;;;2.60;99.90;;;;;;5011682;28;20471;-54
2021/01/18 04:44:18;;;;;;;17.98;8.40;;;4.20;99.90;;;;;;5012786;28;20405;-54
2021/01/18 04:46:45;;;;;;;14.93;8.10;;;2.50;99.90;;;;;;5010480;28;20408;-54
2021/01/18 04:49:13;;;;;;;16.98;9.00;;;2.50;99.90;;;;;;5012067;28;20393;-54
2021/01/18 04:51:54;;;;;;;23.00;9.05;;;4.90;99.90;;;;;;5010290;28;20407;-54
2021/01/18 04:54:21;;;;;;;20.57;9.00;;;2.60;99.90;;;;;;5012641;28;20920;-54
2021/01/18 04:57:09;;;;;;;16.67;9.20;;;2.60;99.90;;;;;;5011780;28;20385;-54
2021/01/18 04:59:47;;;;;;;19.40;9.40;;;2.50;99.90;;;;;;5010768;28;20397;-54
2021/01/18 05:02:18;;;;;;;18.42;9.32;;;2.50;99.90;;;;;;5011400;28;20401;-54
2021/01/18 05:04:46;;;;;;;20.58;9.40;;;2.40;99.90;;;;;;5008431;28;20424;-54
2021/01/18 05:07:36;;;;;;;20.35;9.60;;;3.80;99.90;;;;;;5012087;28;20393;-54
2021/01/18 05:10:12;;;;;;;22.88;9.95;;;2.30;99.90;;;;;;5009536;28;20878;-54
2021/01/18 05:12:42;;;;;;;22.50;9.45;;;2.30;99.90;;;;;;5010000;28;20404;-54
2021/01/18 05:15:12;;;;;;;20.13;9.20;;;2.30;99.90;;;;;;5003865;28;20419;-54
2021/01/18 05:17:46;;;;;;;19.38;10.40;;;2.30;99.90;;;;;;5010642;28;20439;-54
2021/01/18 05:20:19;;;;;;;20.25;9.75;;;3.40;99.90;;;;;;5011397;28;20455;-54
2021/01/18 05:22:47;;;;;;;19.10;8.70;;;2.30;99.90;;;;;;5009334;28;20970;-54
2021/01/18 05:25:13;;;;;;;25.55;10.85;;;2.30;99.90;;;;;;5011703;28;20480;-54
2021/01/18 05:28:03;;;;;;;21.73;10.38;;;2.30;99.90;;;;;;5010379;28;20393;-54
2021/01/18 05:30:34;;;;;;;23.75;10.30;;;2.30;99.90;;;;;;5011188;28;21225;-54
2021/01/18 05:33:13;;;;;;;21.50;10.00;;;2.30;99.90;;;;;;5009678;28;20420;-54
2021/01/18 05:35:41;;;;;;;19.77;9.60;;;2.30;99.90;;;;;;5010675;28;20830;-54
2021/01/18 05:38:11;;;;;;;23.00;9.75;;;4.90;99.90;;;;;;5009933;28;20400;-54
2021/01/18 05:40:50;;;;;;;18.38;8.82;;;4.40;99.90;;;;;;5010289;28;20391;-54
2021/01/18 05:43:18;;;;;;;20.00;9.30;;;2.20;99.90;;;;;;5010103;28;20748;-54
2021/01/18 05:45:45;;;;;;;18.30;9.50;;;3.30;99.90;;;;;;5009637;28;21032;-54
2021/01/18 05:48:12;;;;;;;17.03;7.97;;;4.30;99.90;;;;;;4998264;28;20400;-54
2021/01/18 05:50:39;;;;;;;18.17;9.00;;;2.20;99.90;;;;;;5008355;28;20399;-54
2021/01/18 05:53:30;;;;;;;17.13;8.32;;;4.10;99.90;;;;;;4995366;28;20878;-54
2021/01/18 05:55:56;;;;;;;23.10;9.15;;;2.30;99.90;;;;;;5006791;28;20543;-54
2021/01/18 05:58:32;;;;;;;19.92;9.32;;;2.30;99.90;;;;;;5008548;28;20544;-54
2021/01/18 06:01:01;;;;;;;16.42;8.70;;;2.30;99.90;;;;;;5008990;28;20476;-54
2021/01/18 06:03:31;;;;;;;19.60;7.63;;;2.30;99.90;;;;;;5008171;28;20416;-54
2021/01/18 06:06:01;;;;;;;18.67;9.38;;;4.70;99.90;;;;;;4999665;28;20413;-54
2021/01/18 06:08:27;;;;;;;19.37;9.77;;;2.30;99.90;;;;;;5002234;28;20479;-54
2021/01/18 06:10:54;;;;;;;18.55;8.50;;;2.20;99.90;;;;;;5004887;28;20405;-54
2021/01/18 06:13:28;;;;;;;20.92;9.80;;;2.20;99.90;;;;;;5009020;28;20656;-54
2021/01/18 06:16:03;;;;;;;17.58;9.30;;;2.60;99.90;;;;;;5004258;28;20426;-54
2021/01/18 06:18:30;;;;;;;16.45;9.32;;;3.00;99.90;;;;;;5006328;28;20407;-54
2021/01/18 06:21:00;;;;;;;21.60;9.93;;;2.20;99.90;;;;;;5006938;28;20397;-54
2021/01/18 06:23:27;;;;;;;18.67;8.93;;;4.40;99.90;;;;;;5009607;28;20878;-54
2021/01/18 06:25:55;;;;;;;20.13;8.68;;;2.20;99.90;;;;;;5005517;28;20405;-54
2021/01/18 06:28:43;;;;;;;15.32;6.47;;;2.30;99.90;;;;;;5009031;28;20393;-54
2021/01/18 06:31:10;;;;;;;15.48;6.75;;;2.20;99.90;;;;;;5003987;28;20499;-54
2021/01/18 06:33:40;;;;;;;17.35;7.78;;;3.50;99.90;;;;;;5008979;28;20397;-54
2021/01/18 06:36:21;;;;;;;14.20;6.77;;;2.30;99.90;;;;;;5008062;28;20404;-54
2021/01/18 06:38:59;;;;;;;14.00;6.55;;;2.20;99.90;;;;;;5007036;28;20420;-54
2021/01/18 06:41:29;;;;;;;16.00;7.47;;;2.30;99.90;;;;;;5007628;28;20901;-54
2021/01/18 06:43:55;;;;;;;15.10;6.78;;;2.30;99.90;;;;;;5007245;28;20424;-54
2021/01/18 06:46:30;;;;;;;18.95;8.68;;;3.00;99.90;;;;;;5005451;28;20393;-54
2021/01/18 06:48:57;;;;;;;13.85;7.38;;;2.40;99.90;;;;;;5004162;28;20404;-54
2021/01/18 06:51:24;;;;;;;16.07;7.63;;;3.70;99.90;;;;;;5008913;28;20476;-54
2021/01/18 06:53:52;;;;;;;17.17;7.40;;;3.80;99.90;;;;;;5006597;28;20405;-54
2021/01/18 06:56:25;;;;;;;17.60;6.95;;;4.70;99.90;;;;;;5000994;28;20404;-54
2021/01/18 06:59:26;;;;;;;14.77;7.85;;;3.60;99.90;;;;;;5005600;28;20894;-54
2021/01/18 07:02:15;;;;;;;15.45;7.35;;;2.40;99.90;;;;;;5006067;28;20439;-54
2021/01/18 07:04:46;;;;;;;15.50;7.65;;;2.40;99.90;;;;;;5006611;28;20408;-54
2021/01/18 07:07:25;;;;;;;19.05;8.82;;;2.40;99.90;;;;;;5003049;28;20432;-54
2021/01/18 07:09:56;;;;;;;17.47;8.40;;;2.40;99.90;;;;;;5001576;28;20385;-54
2021/01/18 07:12:23;;;;;;;15.82;8.52;;;2.40;99.90;;;;;;4997784;28;20412;-54
2021/01/18 07:14:59;;;;;;;18.63;8.23;;;2.40;99.90;;;;;;5004297;28;20525;-54
2021/01/18 07:17:43;;;;;;;17.05;8.40;;;2.40;99.90;;;;;;4999832;28;20411;-54
2021/01/18 07:20:21;;;;;;;17.17;6.60;;;2.40;99.90;;;;;;5003975;28;20459;-54
2021/01/18 07:22:55;;;;;;;19.00;8.73;;;3.20;99.90;;;;;;5002326;28;20424;-54
2021/01/18 07:25:23;;;;;;;16.80;7.93;;;2.40;99.90;;;;;;4995473;28;20412;-55
2021/01/18 07:27:51;;;;;;;15.75;7.53;;;3.30;99.90;;;;;;4993977;28;20411;-55
2021/01/18 07:30:18;;;;;;;17.90;8.60;;;4.70;99.90;;;;;;5003712;28;20412;-55
2021/01/18 07:32:43;;;;;;;15.68;8.68;;;2.50;99.90;;;;;;5004361;28;20417;-54
2021/01/18 07:35:11;;;;;;;21.48;8.43;;;3.80;99.90;;;;;;4989716;28;20923;-55
2021/01/18 07:37:36;;;;;;;20.30;9.13;;;2.40;99.90;;;;;;5000660;28;20755;-54
2021/01/18 07:40:13;;;;;;;17.43;8.30;;;4.30;99.90;;;;;;5000244;28;20854;-54
2021/01/18 07:42:41;;;;;;;23.88;10.52;;;2.40;99.90;;;;;;5004029;28;20413;-54
2021/01/18 07:45:14;;;;;;;22.48;10.00;;;2.40;99.90;;;;;;4996956;28;22340;-55
2021/01/18 07:47:54;;;;;;;19.45;9.85;;;2.60;99.90;;;;;;4993767;28;20472;-54
2021/01/18 07:50:31;;;;;;;21.67;9.40;;;2.40;99.90;;;;;;5000464;28;20407;-54
2021/01/18 07:53:10;;;;;;;16.63;8.75;;;2.50;99.90;;;;;;5002776;28;20734;-55
2021/01/18 07:55:37;;;;;;;20.50;8.73;;;2.60;99.90;;;;;;4998964;28;20754;-54
2021/01/18 07:58:31;;;;;;;20.35;9.10;;;4.80;99.90;;;;;;4999279;28;20401;-55
2021/01/18 08:01:08;;;;;;;19.45;9.07;;;2.60;99.90;;;;;;4986853;28;20428;-54
2021/01/18 08:03:34;;;;;;;19.42;8.13;;;2.60;99.90;;;;;;5000713;28;21283;-54
2021/01/18 08:06:09;;;;;;;16.55;8.82;;;2.40;99.90;;;;;;5002873;28;20521;-54
2021/01/18 08:08:35;;;;;;;19.85;8.98;;;2.50;99.90;;;;;;5004413;28;20479;-54
2021/01/18 08:11:15;;;;;;;17.45;8.05;;;3.60;99.90;;;;;;5005031;28;20420;-55
2021/01/18 08:13:48;;;;;;;18.77;8.45;;;3.30;99.90;;;;;;5007398;28;20436;-54
2021/01/18 08:16:19;;;;;;;20.52;9.40;;;2.60;99.90;;;;;;5002260;28;20411;-54
2021/01/18 08:19:19;;;;;;;18.98;8.40;;;2.60;99.90;;;;;;4998435;28;20451;-54
2021/01/18 08:21:59;;;;;;;21.70;10.60;;;2.60;99.90;;;;;;5006476;28;21201;-54
2021/01/18 08:24:28;;;;;;;25.20;10.98;;;2.60;99.90;;;;;;5000827;28;20857;-54
2021/01/18 08:26:55;;;;;;;19.53;10.53;;;2.70;99.90;;;;;;5002214;28;20532;-54
2021/01/18 08:29:36;;;;;;;13.55;7.45;;;2.70;99.90;;;;;;5004674;28;20416;-54
2021/01/18 08:32:20;;;;;;;24.77;9.10;;;4.50;99.90;;;;;;5007387;28;20500;-54
2021/01/18 08:34:49;;;;;;;20.45;10.10;;;2.60;99.90;;;;;;4997136;28;20442;-54
2021/01/18 08:37:14;;;;;;;18.47;9.10;;;4.00;99.90;;;;;;5005113;28;20599;-55
2021/01/18 08:39:54;;;;;;;22.63;9.80;;;3.00;99.90;;;;;;5007801;28;20506;-54
2021/01/18 08:42:46;;;;;;;19.83;9.52;;;2.90;99.90;;;;;;4990485;28;20907;-54
2021/01/18 08:45:24;;;;;;;18.38;9.20;;;3.00;99.90;;;;;;5009815;28;20404;-54
2021/01/18 08:47:54;;;;;;;19.40;8.93;;;3.00;99.90;;;;;;5008903;28;20400;-54
2021/01/18 08:50:23;;;;;;;17.73;8.50;;;3.00;99.90;;;;;;5007823;28;20467;-54
2021/01/18 08:52:50;;;;;;;17.02;8.18;;;3.00;99.90;;;;;;5007046;28;20399;-55
2021/01/18 08:55:31;;;;;;;17.63;9.27;;;2.90;99.90;;;;;;5010242;28;20858;-54
2021/01/18 08:58:04;;;;;;;17.90;8.88;;;4.30;99.90;;;;;;5005913;28;20408;-54
2021/01/18 09:00:47;;;;;;;24.60;9.23;;;3.00;99.90;;;;;;5002263;28;20413;-54
2021/01/18 09:03:21;;;;;;;21.15;9.55;;;3.00;99.90;;;;;;4992891;28;20466;-54
2021/01/18 09:05:57;;;;;;;18.63;9.30;;;3.10;99.90;;;;;;5005428;28;20443;-55
2021/01/18 09:08:23;;;;;;;19.02;9.50;;;2.90;99.90;;;;;;5004361;28;20412;-55
2021/01/18 09:11:03;;;;;;;18.63;9.20;;;3.00;99.90;;;;;;5001433;28;20483;-54
2021/01/18 09:13:31;;;;;;;20.33;9.10;;;3.10;99.90;;;;;;5009132;28;20409;-55
2021/01/18 09:15:59;;;;;;;22.42;9.80;;;3.00;99.90;;;;;;5007760;28;20463;-55
2021/01/18 09:18:26;;;;;;;19.10;8.00;;;3.00;99.90;;;;;;4998850;28;21663;-54
2021/01/18 09:20:53;;;;;;;16.35;7.45;;;3.00;99.90;;;;;;4999241;28;20405;-55
2021/01/18 09:23:19;;;;;;;16.48;8.13;;;3.00;99.90;;;;;;5004886;28;20468;-55
2021/01/18 09:25:45;;;;;;;13.77;8.00;;;3.30;99.90;;;;;;5000263;28;20405;-54
2021/01/18 09:28:13;;;;;;;15.02;7.70;;;3.20;99.90;;;;;;4998866;28;20552;-54
2021/01/18 09:30:43;;;;;;;15.07;7.18;;;3.20;99.90;;;;;;5000838;28;20408;-54
2021/01/18 09:33:11;;;;;;;14.38;8.20;;;5.00;99.90;;;;;;4999669;28;20386;-54
2021/01/18 09:35:42;;;;;;;15.33;7.87;;;3.20;99.90;;;;;;5006688;28;20406;-55
2021/01/18 09:38:09;;;;;;;18.63;8.02;;;3.30;99.90;;;;;;5004348;28;20405;-54
2021/01/18 09:40:37;;;;;;;17.08;7.80;;;3.50;99.90;;;;;;5004598;28;20447;-55
2021/01/18 09:43:04;;;;;;;16.75;7.80;;;4.90;99.90;;;;;;5000200;28;20420;-55
2021/01/18 09:45:30;;;;;;;15.55;7.57;;;4.60;99.90;;;;;;5001443;28;20964;-54
2021/01/18 09:48:09;;;;;;;13.93;7.47;;;3.50;99.90;;;;;;5005013;28;20407;-54
2021/01/18 09:50:37;;;;;;;14.80;7.57;;;3.40;99.90;;;;;;5006516;28;20454;-55
2021/01/18 09:53:09;;;;;;;14.75;7.15;;;3.50;99.90;;;;;;5007234;28;20908;-55
2021/01/18 09:55:40;;;;;;;13.02;6.50;;;3.60;99.90;;;;;;5005587;28;20407;-55
2021/01/18 09:58:18;;;;;;;15.05;7.10;;;3.60;99.90;;;;;;5004017;28;20404;-54
2021/01/18 10:00:48;;;;;;;13.23;6.70;;;3.50;99.90;;;;;;5007740;28;20443;-54
2021/01/18 10:03:28;;;;;;;15.25;7.65;;;3.50;99.90;;;;;;5006621;28;20424;-55
2021/01/18 10:06:13;;;;;;;12.43;6.05;;;3.60;99.90;;;;;;5004621;28;20941;-54
2021/01/18 10:08:43;;;;;;;12.73;6.90;;;3.60;99.90;;;;;;5008279;28;20389;-55
2021/01/18 10:11:08;;;;;;;12.20;6.60;;;3.70;99.90;;;;;;5001920;28;20416;-55
2021/01/18 10:13:34;;;;;;;15.40;7.00;;;6.20;99.90;;;;;;5007318;28;20392;-55
2021/01/18 10:16:11;;;;;;;13.70;6.95;;;3.90;99.90;;;;;;4994851;28;20428;-54
2021/01/18 10:18:47;;;;;;;13.17;6.83;;;4.00;99.90;;;;;;4997882;28;21365;-54
2021/01/18 10:21:12;;;;;;;12.93;7.03;;;4.10;99.90;;;;;;5005540;28;20724;-55
2021/01/18 10:23:40;;;;;;;14.17;6.77;;;4.10;99.90;;;;;;5006441;28;20459;-55
2021/01/18 10:26:35;;;;;;;13.55;7.10;;;4.70;99.90;;;;;;5005551;28;20405;-55
2021/01/18 10:29:05;;;;;;;13.60;6.90;;;4.30;99.90;;;;;;5002258;28;20408;-54
2021/01/18 10:31:34;;;;;;;14.73;7.22;;;4.40;99.90;;;;;;5006174;28;20444;-54
2021/01/18 10:34:13;;;;;;;14.07;6.90;;;5.30;99.90;;;;;;5002799;28;20417;-54
2021/01/18 10:36:47;;;;;;;15.93;6.40;;;4.60;99.90;;;;;;5006021;28;20404;-55
2021/01/18 10:39:26;;;;;;;12.40;6.20;;;4.60;99.90;;;;;;5005821;28;20397;-55
2021/01/18 10:42:03;;;;;;;12.40;5.90;;;4.60;99.90;;;;;;5006636;28;20385;-55
2021/01/18 10:44:28;;;;;;;15.85;7.55;;;4.90;99.90;;;;;;5006547;28;20404;-54
2021/01/18 10:46:54;;;;;;;12.83;6.60;;;4.80;99.90;;;;;;5006355;28;20454;-55
2021/01/18 10:49:28;;;;;;;20.50;9.30;;;4.80;99.90;;;;;;5006220;28;20404;-55
2021/01/18 10:51:59;;;;;;;11.70;6.22;;;4.90;99.90;;;;;;5006763;28;20420;-53
2021/01/18 10:54:24;;;;;;;11.63;5.57;;;4.90;99.90;;;;;;5005001;28;20415;-55
2021/01/18 10:56:50;;;;;;;15.80;7.53;;;4.90;99.90;;;;;;5005966;28;21219;-54
2021/01/18 10:59:16;;;;;;;10.30;6.07;;;4.80;99.90;;;;;;5005573;28;20404;-55
2021/01/18 11:02:05;;;;;;;10.15;5.22;;;5.00;99.90;;;;;;5006334;28;20409;-55
2021/01/18 11:04:42;;;;;;;10.65;5.72;;;5.10;99.90;;;;;;5007139;28;20500;-55
2021/01/18 11:07:10;;;;;;;8.93;4.90;;;5.30;99.90;;;;;;5004936;28;20459;-55
2021/01/18 11:09:36;;;;;;;11.35;4.90;;;5.50;99.90;;;;;;5006949;28;20420;-55
2021/01/18 11:12:02;;;;;;;9.00;4.63;;;5.30;99.90;;;;;;5006006;28;20404;-55
2021/01/18 11:14:29;;;;;;;10.98;4.72;;;5.20;99.90;;;;;;5008110;28;20417;-55
2021/01/18 11:16:59;;;;;;;8.57;4.05;;;5.20;99.90;;;;;;5005871;28;20830;-55
2021/01/18 11:19:25;;;;;;;11.20;4.65;;;4.90;99.90;;;;;;5004517;28;20400;-53
2021/01/18 11:21:51;;;;;;;8.88;4.05;;;4.70;99.90;;;;;;5006695;28;20467;-53
2021/01/18 11:24:16;;;;;;;8.70;4.10;;;4.70;99.90;;;;;;5005213;28;20495;-53
2021/01/18 11:26:42;;;;;;;9.40;4.63;;;4.70;99.90;;;;;;5006232;28;20799;-53
2021/01/18 11:29:08;;;;;;;8.00;4.57;;;4.60;99.90;;;;;;5005318;28;20468;-55
2021/01/18 11:31:33;;;;;;;8.30;4.30;;;5.60;99.90;;;;;;5006705;28;20432;-53
2021/01/18 11:33:59;;;;;;;11.60;4.68;;;4.80;99.90;;;;;;5004597;28;20416;-55
2021/01/18 11:36:25;;;;;;;9.30;4.60;;;5.60;99.90;;;;;;5007515;28;20878;-55
2021/01/18 11:38:52;;;;;;;9.68;4.93;;;4.90;99.90;;;;;;5007079;28;20455;-55
2021/01/18 11:41:17;;;;;;;11.07;4.43;;;5.00;99.90;;;;;;5006281;28;20910;-55
2021/01/18 11:43:43;;;;;;;11.10;4.75;;;4.90;99.90;;;;;;5007787;28;20475;-55
2021/01/18 11:46:14;;;;;;;11.03;4.77;;;4.80;99.90;;;;;;5008238;28;20401;-55
2021/01/18 11:48:40;;;;;;;8.32;3.70;;;4.60;99.90;;;;;;5010294;28;20392;-55
2021/01/18 11:51:05;;;;;;;15.93;5.33;;;4.50;99.90;;;;;;5007077;28;20400;-53
2021/01/18 11:53:31;;;;;;;8.52;3.50;;;4.50;99.90;;;;;;5010672;28;20554;-53
2021/01/18 11:55:56;;;;;;;9.47;3.57;;;4.50;99.90;;;;;;5008775;28;20951;-53
2021/01/18 11:58:22;;;;;;;8.23;3.33;;;4.90;99.90;;;;;;5011126;28;20443;-53
2021/01/18 12:00:48;;;;;;;8.20;3.30;;;4.50;99.90;;;;;;5009432;28;20396;-55
2021/01/18 12:03:14;;;;;;;7.40;3.40;;;4.40;99.90;;;;;;5007805;28;20433;-53
2021/01/18 12:05:39;;;;;;;9.20;3.63;;;4.80;99.90;;;;;;5009365;28;20486;-53
2021/01/18 12:08:06;;;;;;;7.25;3.17;;;4.90;99.90;;;;;;5010100;28;20480;-53
2021/01/18 12:10:36;;;;;;;9.50;3.40;;;4.50;99.90;;;;;;5004167;28;20491;-54
2021/01/18 12:13:08;;;;;;;7.95;3.13;;;4.70;99.90;;;;;;5010086;28;20393;-55
2021/01/18 12:15:34;;;;;;;7.47;3.20;;;4.50;99.90;;;;;;5009772;28;20436;-54
2021/01/18 12:18:00;;;;;;;7.40;2.90;;;6.50;99.90;;;;;;5006454;28;20396;-54
2021/01/18 12:20:26;;;;;;;8.03;3.60;;;4.50;99.90;;;;;;5009319;28;20894;-54
2021/01/18 12:22:54;;;;;;;7.10;3.03;;;4.60;99.90;;;;;;5010281;28;20419;-54
2021/01/18 12:25:21;;;;;;;9.15;3.20;;;5.60;99.90;;;;;;5007422;28;20833;-54
2021/01/18 12:27:50;;;;;;;8.25;2.85;;;4.50;99.90;;;;;;5010672;28;20464;-54
2021/01/18 12:30:17;;;;;;;11.65;4.18;;;5.80;99.90;;;;;;5009525;28;20743;-54
2021/01/18 12:32:43;;;;;;;8.43;3.33;;;4.30;99.90;;;;;;5006538;28;20432;-54
2021/01/18 12:35:09;;;;;;;6.20;2.80;;;4.80;99.90;;;;;;5006533;28;20435;-54
2021/01/18 12:37:34;;;;;;;9.70;3.40;;;4.30;99.90;;;;;;5006760;28;20415;-54
2021/01/18 12:40:00;;;;;;;7.47;3.25;;;4.40;99.90;;;;;;5008736;28;20596;-54
2021/01/18 12:42:26;;;;;;;7.70;2.90;;;5.80;99.90;;;;;;5004941;28;20463;-54
2021/01/18 12:44:52;;;;;;;8.10;2.85;;;4.50;99.90;;;;;;5006978;28;20500;-54
2021/01/18 12:47:17;;;;;;;8.93;2.70;;;4.40;99.90;;;;;;5008503;28;20389;-55
2021/01/18 12:49:43;;;;;;;6.83;2.90;;;4.50;99.90;;;;;;5009218;28;20918;-54
2021/01/18 12:52:10;;;;;;;8.00;2.60;;;4.40;99.90;;;;;;5008840;28;20468;-54
2021/01/18 12:54:36;;;;;;;6.70;2.85;;;4.40;99.90;;;;;;5007874;28;20625;-54
2021/01/18 12:57:02;;;;;;;8.60;3.00;;;4.30;99.90;;;;;;5009107;28;20435;-54
2021/01/18 12:59:28;;;;;;;8.23;2.80;;;4.40;99.90;;;;;;5006168;28;20459;-54
2021/01/18 13:01:54;;;;;;;6.20;2.70;;;5.10;99.90;;;;;;5010617;28;20890;-54
2021/01/18 13:04:19;;;;;;;6.50;2.50;;;4.30;99.90;;;;;;5005481;28;20507;-54